Time;durP1;ratioP1;P1;durP2;ratioP2;P2;SDS_P1;SDS_P2;PMS_P1;PMS_P2;Temp;Humidity;BMP_temperature;BMP_pressure;BME280_temperature;BME280_humidity;BME280_pressure;Samples;Min_cycle;Max_cycle;Signal;HPM_P1;HPM_P2
2023/06/23 00:00:25;;;;;;;11.85;9.07;;;;;;;16.37;100.00;101720.88;5112583;28;20032;-62
2023/06/23 00:02:51;;;;;;;10.77;9.07;;;;;;;16.31;100.00;101719.50;5092989;28;20066;-63
2023/06/23 00:05:19;;;;;;;13.88;9.85;;;;;;;16.36;100.00;101729.91;5090703;28;20071;-63
2023/06/23 00:07:44;;;;;;;13.20;9.93;;;;;;;16.27;100.00;101738.66;5112504;28;20455;-63
2023/06/23 00:10:10;;;;;;;12.80;10.05;;;;;;;16.33;100.00;101735.50;5091209;28;20038;-62
2023/06/23 00:12:41;;;;;;;12.00;10.23;;;;;;;16.17;100.00;101733.06;5112328;28;20035;-63
2023/06/23 00:15:12;;;;;;;13.00;9.65;;;;;;;16.31;100.00;101749.03;5112966;27;20470;-63
2023/06/23 00:17:38;;;;;;;14.57;10.68;;;;;;;16.10;100.00;101751.44;5112669;28;20042;-63
2023/06/23 00:20:14;;;;;;;13.65;10.00;;;;;;;16.25;100.00;101759.38;5112092;28;20158;-62
2023/06/23 00:22:41;;;;;;;11.88;10.65;;;;;;;16.17;100.00;101753.69;5112652;28;20028;-62
2023/06/23 00:25:11;;;;;;;11.43;10.15;;;;;;;16.23;100.00;101766.66;5111953;28;20020;-62
2023/06/23 00:27:37;;;;;;;11.88;10.68;;;;;;;16.21;100.00;101760.56;5108828;28;20544;-63
2023/06/23 00:30:04;;;;;;;14.63;11.80;;;;;;;16.05;100.00;101758.97;5112192;28;20031;-63
2023/06/23 00:32:29;;;;;;;12.60;11.30;;;;;;;16.10;100.00;101750.59;5112565;28;20023;-63
2023/06/23 00:34:54;;;;;;;13.50;11.55;;;;;;;16.19;100.00;101762.50;5112167;28;20023;-62
2023/06/23 00:37:20;;;;;;;18.75;11.75;;;;;;;16.20;100.00;101766.88;5093911;28;20118;-63
2023/06/23 00:39:45;;;;;;;13.43;12.07;;;;;;;16.20;100.00;101773.09;5109619;28;20422;-63
2023/06/23 00:42:10;;;;;;;15.25;12.93;;;;;;;16.02;100.00;101758.31;5111032;28;20081;-63
2023/06/23 00:44:37;;;;;;;13.95;12.50;;;;;;;16.01;100.00;101768.22;5093620;28;20047;-62
2023/06/23 00:47:04;;;;;;;15.48;12.15;;;;;;;16.01;100.00;101775.41;5094368;28;20031;-62
2023/06/23 00:49:30;;;;;;;15.27;12.45;;;;;;;16.18;100.00;101779.53;5111796;28;20110;-62
2023/06/23 00:51:57;;;;;;;14.25;12.65;;;;;;;16.19;100.00;101784.81;5112244;28;20026;-62
2023/06/23 00:54:23;;;;;;;14.10;12.63;;;;;;;16.07;100.00;101789.25;5111738;28;20038;-63
2023/06/23 00:56:49;;;;;;;15.35;13.85;;;;;;;16.07;100.00;101791.91;5093974;28;20039;-62
2023/06/23 00:59:15;;;;;;;15.60;13.35;;;;;;;16.03;100.00;101795.81;5111401;28;20030;-62
2023/06/23 01:01:40;;;;;;;14.90;13.38;;;;;;;16.02;100.00;101806.63;5093411;28;20115;-62
2023/06/23 01:04:08;;;;;;;17.08;15.38;;;;;;;16.11;100.00;101805.97;5112513;28;20019;-62
2023/06/23 01:06:57;;;;;;;19.55;14.95;;;;;;;16.04;100.00;101813.63;5112241;28;20019;-62
2023/06/23 01:09:37;;;;;;;21.70;16.25;;;;;;;16.12;100.00;101823.81;5092814;28;20537;-62
2023/06/23 01:12:11;;;;;;;17.25;15.07;;;;;;;15.96;100.00;101829.38;5093816;28;20118;-62
2023/06/23 01:14:49;;;;;;;18.52;16.63;;;;;;;16.08;100.00;101828.50;5111695;28;20046;-62
2023/06/23 01:17:26;;;;;;;21.88;17.38;;;;;;;15.94;100.00;101831.31;5111780;28;20023;-62
2023/06/23 01:20:21;;;;;;;19.25;17.08;;;;;;;16.06;100.00;101821.53;5112455;28;20062;-63
2023/06/23 01:23:07;;;;;;;21.02;18.83;;;;;;;16.09;100.00;101826.72;5116660;27;20019;-62
2023/06/23 01:25:47;;;;;;;23.73;18.58;;;;;;;15.97;100.00;101825.75;5097752;28;20443;-62
2023/06/23 01:28:40;;;;;;;21.50;18.50;;;;;;;16.04;100.00;101831.53;5115178;28;20478;-62
2023/06/23 01:31:09;;;;;;;20.52;18.40;;;;;;;16.06;100.00;101826.91;5100196;28;20027;-62
2023/06/23 01:33:50;;;;;;;21.55;19.23;;;;;;;16.01;100.00;101834.44;5097371;28;20053;-62
2023/06/23 01:36:24;;;;;;;21.42;19.38;;;;;;;16.03;100.00;101840.53;5115603;28;20024;-62
2023/06/23 01:38:55;;;;;;;22.45;20.05;;;;;;;15.90;100.00;101838.72;5123650;27;20046;-63
2023/06/23 01:41:28;;;;;;;23.05;20.63;;;;;;;15.98;100.00;101848.06;5117678;27;20098;-62
2023/06/23 01:43:56;;;;;;;24.67;20.73;;;;;;;15.96;100.00;101837.44;5135794;27;20048;-62
2023/06/23 01:46:25;;;;;;;23.40;21.02;;;;;;;15.91;100.00;101842.25;5136115;27;20102;-62
2023/06/23 01:48:58;;;;;;;23.30;20.85;;;;;;;15.86;100.00;101841.75;5122193;27;20050;-62
2023/06/23 01:51:28;;;;;;;25.25;21.13;;;;;;;15.86;100.00;101847.09;5115391;28;20042;-63
2023/06/23 01:53:55;;;;;;;22.90;20.00;;;;;;;15.70;100.00;101843.75;5114764;28;20051;-63
2023/06/23 01:56:23;;;;;;;23.02;19.98;;;;;;;15.67;100.00;101847.47;5128582;27;20019;-62
2023/06/23 01:58:51;;;;;;;25.10;21.20;;;;;;;15.77;100.00;101848.59;5117535;27;20035;-62
2023/06/23 02:01:17;;;;;;;22.65;20.35;;;;;;;15.74;100.00;101848.81;5097004;28;20110;-63
2023/06/23 02:03:45;;;;;;;24.10;21.65;;;;;;;15.75;100.00;101863.06;5096811;28;20027;-63
2023/06/23 02:06:13;;;;;;;24.52;22.20;;;;;;;15.75;100.00;101863.06;5097195;28;20062;-63
2023/06/23 02:08:39;;;;;;;23.17;20.70;;;;;;;15.73;100.00;101863.16;5114219;28;20359;-63
2023/06/23 02:11:06;;;;;;;24.20;21.17;;;;;;;15.70;100.00;101866.06;5096730;28;20022;-63
2023/06/23 02:13:32;;;;;;;24.38;21.13;;;;;;;15.76;100.00;101875.50;5115831;27;20023;-62
2023/06/23 02:15:59;;;;;;;24.77;21.20;;;;;;;15.75;100.00;101880.03;5096665;28;20070;-63
2023/06/23 02:18:26;;;;;;;24.33;21.73;;;;;;;15.72;100.00;101882.91;5114723;28;20102;-63
2023/06/23 02:20:53;;;;;;;25.48;21.98;;;;;;;15.74;100.00;101890.88;5114783;28;20065;-63
2023/06/23 02:23:19;;;;;;;23.83;21.35;;;;;;;15.78;100.00;101887.00;5079385;28;20028;-63
2023/06/23 02:25:45;;;;;;;23.58;21.25;;;;;;;15.61;100.00;101888.97;5114632;28;20030;-63
2023/06/23 02:28:11;;;;;;;23.85;21.27;;;;;;;15.66;100.00;101900.25;5114194;28;20453;-63
2023/06/23 02:30:39;;;;;;;27.70;21.55;;;;;;;15.71;100.00;101889.25;5129874;27;20174;-63
2023/06/23 02:33:09;;;;;;;24.77;21.60;;;;;;;15.56;100.00;101899.16;5135164;27;20046;-63
2023/06/23 02:35:35;;;;;;;25.13;22.35;;;;;;;15.61;100.00;101901.53;5135155;27;20371;-63
2023/06/23 02:38:03;;;;;;;26.20;23.27;;;;;;;15.64;100.00;101920.94;5118943;27;20027;-63
2023/06/23 02:40:33;;;;;;;26.38;23.27;;;;;;;15.63;100.00;101916.56;5114172;28;20243;-63
2023/06/23 02:43:09;;;;;;;;;;;;;;;15.79;100.00;101932.50;5111179;28;20023;-63
2023/06/23 02:45:39;;;;;;;28.33;22.60;;;;;;;15.64;100.00;101931.66;5096054;28;19908;-63
2023/06/23 02:48:12;;;;;;;26.95;23.88;;;;;;;15.59;100.00;101928.47;5113984;27;20067;-62
2023/06/23 02:50:38;;;;;;;26.58;23.95;;;;;;;15.61;100.00;101934.56;5111411;28;20035;-63
2023/06/23 02:53:13;;;;;;;29.73;23.60;;;;;;;15.52;100.00;101924.44;5112401;28;20428;-62
2023/06/23 02:55:42;;;;;;;28.88;23.92;;;;;;;15.47;100.00;101931.06;5113996;28;20394;-63
2023/06/23 02:58:11;;;;;;;29.80;25.55;;;;;;;15.44;100.00;101934.81;5095156;28;20073;-63
2023/06/23 03:00:37;;;;;;;;;;;;;;;15.70;100.00;101946.53;5114391;28;20110;-63
2023/06/23 03:03:06;;;;;;;27.42;24.15;;;;;;;15.55;100.00;101944.84;5114674;27;19922;-63
2023/06/23 03:05:32;;;;;;;28.27;25.25;;;;;;;15.48;100.00;101931.00;5114453;28;20035;-63
2023/06/23 03:08:00;;;;;;;27.90;25.15;;;;;;;15.36;100.00;101935.34;5113070;28;20032;-63
2023/06/23 03:10:27;;;;;;;31.20;25.88;;;;;;;15.41;100.00;101929.66;5095367;28;20027;-62
2023/06/23 03:12:52;;;;;;;30.42;27.25;;;;;;;15.51;100.00;101941.50;5113656;28;20062;-62
2023/06/23 03:15:18;;;;;;;29.75;25.92;;;;;;;15.52;100.00;101940.53;5113805;28;20047;-62
2023/06/23 03:17:46;;;;;;;30.75;27.48;;;;;;;15.40;100.00;101938.69;5111328;28;20027;-63
2023/06/23 03:20:19;;;;;;;29.20;26.30;;;;;;;15.43;100.00;101942.00;5114120;27;20036;-63
2023/06/23 03:22:52;;;;;;;30.48;27.23;;;;;;;15.41;100.00;101935.91;5095345;28;20530;-63
2023/06/23 03:25:27;;;;;;;30.35;27.33;;;;;;;15.29;100.00;101946.56;5112714;28;20020;-62
2023/06/23 03:27:58;;;;;;;31.83;28.52;;;;;;;15.36;100.00;101953.25;5094680;28;20020;-63
2023/06/23 03:30:33;;;;;;;30.77;27.58;;;;;;;15.26;100.00;101950.28;5112869;28;20028;-63
2023/06/23 03:33:03;;;;;;;32.60;29.40;;;;;;;15.40;100.00;101950.25;5113870;28;20016;-63
2023/06/23 03:35:34;;;;;;;32.85;29.42;;;;;;;15.33;100.00;101950.78;5078476;28;20027;-63
2023/06/23 03:38:07;;;;;;;32.35;28.95;;;;;;;15.39;100.00;101955.72;5104711;27;20027;-63
2023/06/23 03:40:38;;;;;;;32.92;29.40;;;;;;;15.33;100.00;101950.78;5133291;27;20072;-62
2023/06/23 03:43:13;;;;;;;34.33;30.75;;;;;;;15.38;100.00;101938.78;5133640;27;20033;-63
2023/06/23 03:45:41;;;;;;;31.98;28.67;;;;;;;15.34;100.00;101952.47;5133857;27;20389;-62
2023/06/23 03:48:11;;;;;;;32.13;28.42;;;;;;;15.35;100.00;101948.84;5112082;28;20525;-63
2023/06/23 03:50:38;;;;;;;;;;;;;;;15.51;100.00;101949.56;5095273;28;20066;-62
2023/06/23 03:53:05;;;;;;;35.42;28.98;;;;;;;15.28;100.00;101958.25;5112143;28;19907;-64
2023/06/23 03:55:32;;;;;;;30.95;27.75;;;;;;;15.35;100.00;101955.09;5105580;28;20025;-63
2023/06/23 03:58:02;;;;;;;31.00;27.63;;;;;;;15.34;100.00;101950.66;5112626;28;20024;-63
2023/06/23 04:00:30;;;;;;;30.98;27.88;;;;;;;15.32;100.00;101954.41;5112963;28;20035;-62
2023/06/23 04:03:00;;;;;;;31.75;28.42;;;;;;;15.32;100.00;101962.44;5112451;28;20024;-63
2023/06/23 04:05:29;;;;;;;32.35;28.98;;;;;;;15.38;100.00;101968.28;5095005;28;20122;-62
2023/06/23 04:07:58;;;;;;;30.27;27.00;;;;;;;15.34;100.00;101969.44;5107523;28;20046;-63
2023/06/23 04:10:25;;;;;;;30.15;27.13;;;;;;;15.39;100.00;101979.88;5112391;28;20031;-62
2023/06/23 04:12:52;;;;;;;30.67;27.00;;;;;;;15.47;100.00;101972.19;5094847;28;20026;-62
2023/06/23 04:15:21;;;;;;;30.27;27.27;;;;;;;15.42;100.00;101976.97;5093688;28;20068;-63
2023/06/23 04:17:48;;;;;;;31.75;27.63;;;;;;;15.39;100.00;101987.91;5112579;28;20027;-63
2023/06/23 04:20:15;;;;;;;31.02;27.88;;;;;;;15.27;100.00;101981.53;5093977;28;20175;-63
2023/06/23 04:22:44;;;;;;;31.95;26.55;;;;;;;15.29;100.00;101992.13;5091705;28;20033;-63
2023/06/23 04:25:11;;;;;;;30.35;27.17;;;;;;;15.43;100.00;101992.94;5109314;28;20156;-63
2023/06/23 04:27:38;;;;;;;29.60;26.65;;;;;;;15.43;100.00;101998.31;5111769;28;20386;-63
2023/06/23 04:30:06;;;;;;;32.45;28.67;;;;;;;15.48;100.00;102000.72;5125327;27;20030;-63
2023/06/23 04:32:34;;;;;;;29.88;26.98;;;;;;;15.45;100.00;102003.59;5112353;28;20053;-62
2023/06/23 04:34:59;;;;;;;30.77;27.77;;;;;;;15.53;100.00;101986.97;5112201;28;20033;-63
2023/06/23 04:37:52;;;;;;;29.67;26.58;;;;;;;15.61;100.00;102004.28;5112064;28;20032;-62
2023/06/23 04:40:29;;;;;;;30.20;26.77;;;;;;;15.59;100.00;102006.22;5093383;28;20032;-63
2023/06/23 04:43:08;;;;;;;30.98;27.77;;;;;;;15.70;100.00;102015.41;5093891;28;20073;-62
2023/06/23 04:45:46;;;;;;;31.40;27.52;;;;;;;15.71;100.00;102025.19;5110688;28;20046;-63
2023/06/23 04:48:13;;;;;;;32.83;29.15;;;;;;;15.73;100.00;102018.75;5105406;28;20406;-63
2023/06/23 04:50:41;;;;;;;32.05;28.60;;;;;;;15.72;100.00;102011.66;5111962;28;20118;-63
2023/06/23 04:53:16;;;;;;;32.13;28.73;;;;;;;15.82;100.00;102011.91;5097684;28;20094;-62
2023/06/23 04:55:45;;;;;;;33.50;29.90;;;;;;;15.85;100.00;102009.91;5096777;28;20023;-63
2023/06/23 04:58:12;;;;;;;;;;;;;;;15.99;100.00;102017.00;5113254;28;20024;-62
2023/06/23 05:00:40;;;;;;;34.28;30.73;;;;;;;15.96;100.00;102019.91;5118575;28;19918;-63
2023/06/23 05:03:07;;;;;;;33.30;29.70;;;;;;;15.95;100.00;102022.72;5100281;28;20027;-63
2023/06/23 05:05:33;;;;;;;36.28;32.33;;;;;;;15.96;100.00;102033.31;5100373;28;20059;-62
2023/06/23 05:08:03;;;;;;;38.78;32.67;;;;;;;16.01;100.00;102033.03;5100066;28;20035;-63
2023/06/23 05:10:30;;;;;;;35.40;31.58;;;;;;;16.06;100.00;102030.88;5099325;28;20023;-62
2023/06/23 05:12:58;;;;;;;41.33;33.15;;;;;;;16.17;100.00;102043.56;5116529;28;20024;-62
2023/06/23 05:15:24;;;;;;;36.65;32.65;;;;;;;16.17;100.00;102044.44;5118418;28;20063;-63
2023/06/23 05:17:53;;;;;;;35.85;31.95;;;;;;;16.22;100.00;102049.50;5098064;28;20397;-63
2023/06/23 05:20:20;;;;;;;38.10;34.03;;;;;;;16.28;100.00;102039.19;5100259;28;20437;-62
2023/06/23 05:22:49;;;;;;;40.70;34.05;;;;;;;16.31;100.00;102039.00;5116371;28;20390;-63
2023/06/23 05:25:18;;;;;;;37.50;33.50;;;;;;;16.38;100.00;102055.53;5097644;28;20026;-62
2023/06/23 05:27:45;;;;;;;44.47;35.75;;;;;;;16.42;100.00;102048.16;5098185;28;20077;-62
2023/06/23 05:30:16;;;;;;;42.53;35.72;;;;;;;16.48;100.00;102055.78;5116158;28;20470;-62
2023/06/23 05:32:43;;;;;;;41.50;35.47;;;;;;;16.50;100.00;102062.78;5118138;28;20035;-62
2023/06/23 05:35:10;;;;;;;40.10;35.88;;;;;;;16.52;100.00;102066.19;5116660;28;20481;-63
2023/06/23 05:37:38;;;;;;;39.05;34.92;;;;;;;16.67;100.00;102069.66;5116186;27;20027;-63
2023/06/23 05:40:07;;;;;;;41.13;36.03;;;;;;;16.72;100.00;102072.88;5117935;28;20038;-63
2023/06/23 05:42:32;;;;;;;44.35;37.03;;;;;;;16.70;100.00;102058.69;5117641;28;20051;-63
2023/06/23 05:45:01;;;;;;;44.22;35.53;;;;;;;16.74;100.00;102070.97;5115993;28;20205;-63
2023/06/23 05:47:34;;;;;;;42.13;37.58;;;;;;;16.92;100.00;102068.00;5088116;28;20043;-62
2023/06/23 05:50:01;;;;;;;46.67;36.90;;;;;;;16.99;100.00;102075.50;5099029;28;20045;-62
2023/06/23 05:52:29;;;;;;;47.60;37.38;;;;;;;17.01;100.00;102084.31;5097578;28;20023;-62
2023/06/23 05:54:57;;;;;;;43.75;38.60;;;;;;;17.06;100.00;102078.63;5098298;28;20027;-62
2023/06/23 05:57:33;;;;;;;43.60;38.17;;;;;;;17.21;100.00;102082.91;5118056;28;20565;-62
2023/06/23 06:00:11;;;;;;;45.92;39.22;;;;;;;17.28;100.00;102087.84;5100078;28;20107;-62
2023/06/23 06:02:40;;;;;;;42.60;37.63;;;;;;;17.32;100.00;102092.88;5100023;28;20077;-62
2023/06/23 06:05:11;;;;;;;43.08;37.90;;;;;;;17.39;100.00;102096.00;5095543;28;20421;-63
2023/06/23 06:07:38;;;;;;;45.55;38.63;;;;;;;17.43;100.00;102086.75;5115010;28;20034;-62
2023/06/23 06:10:07;;;;;;;46.35;37.97;;;;;;;17.42;100.00;102091.25;5104496;28;20036;-63
2023/06/23 06:12:38;;;;;;;43.63;37.97;;;;;;;17.52;100.00;102098.66;5106684;28;20463;-63
2023/06/23 06:15:08;;;;;;;46.65;39.17;;;;;;;17.54;100.00;102097.59;5094339;28;20035;-63
2023/06/23 06:17:36;;;;;;;42.63;37.50;;;;;;;17.61;100.00;102103.38;5115444;27;20533;-63
2023/06/23 06:20:04;;;;;;;47.60;39.50;;;;;;;17.65;100.00;102108.44;5096208;28;20068;-63
2023/06/23 06:22:34;;;;;;;45.88;40.17;;;;;;;17.70;100.00;102098.16;5114796;28;20478;-63
2023/06/23 06:25:02;;;;;;;50.50;40.25;;;;;;;17.75;100.00;102092.47;5095868;28;20451;-63
2023/06/23 06:27:31;;;;;;;45.50;39.57;;;;;;;17.83;100.00;102090.09;5067842;28;20028;-63
2023/06/23 06:29:58;;;;;;;47.33;38.57;;;;;;;17.98;100.00;102106.09;5094064;28;20066;-63
2023/06/23 06:32:25;;;;;;;41.70;36.17;;;;;;;18.05;100.00;102105.50;5111938;28;20043;-63
2023/06/23 06:34:52;;;;;;;43.67;37.95;;;;;;;18.09;100.00;102112.41;5107232;28;20490;-63
2023/06/23 06:37:19;;;;;;;46.13;39.33;;;;;;;18.24;100.00;102115.78;5080499;28;20039;-63
2023/06/23 06:39:45;;;;;;;44.83;38.15;;;;;;;18.22;100.00;102123.09;5093616;28;20450;-63
2023/06/23 06:42:11;;;;;;;41.55;35.35;;;;;;;18.17;100.00;102122.56;5112990;28;20055;-63
2023/06/23 06:44:36;;;;;;;39.88;35.17;;;;;;;18.15;100.00;102117.31;5107145;27;20107;-63
2023/06/23 06:47:06;;;;;;;42.85;36.92;;;;;;;18.25;100.00;102124.72;5105621;27;20051;-62
2023/06/23 06:49:33;;;;;;;41.72;36.00;;;;;;;18.29;100.00;102134.25;5105795;27;20032;-63
2023/06/23 06:52:01;;;;;;;45.78;35.92;;;;;;;18.35;100.00;102140.06;5095349;28;20034;-63
2023/06/23 06:54:26;;;;;;;41.83;35.33;;;;;;;18.41;100.00;102132.47;5113003;28;20024;-63
2023/06/23 06:56:54;;;;;;;38.60;34.28;;;;;;;18.43;100.00;102141.31;5095190;28;20026;-63
2023/06/23 06:59:20;;;;;;;41.85;36.42;;;;;;;18.52;100.00;102141.47;5113181;28;20449;-62
2023/06/23 07:01:46;;;;;;;39.28;34.60;;;;;;;18.49;100.00;102139.00;5094640;28;20055;-63
2023/06/23 07:04:15;;;;;;;37.47;33.33;;;;;;;18.50;100.00;102143.44;5112933;28;20096;-63
2023/06/23 07:06:40;;;;;;;38.90;32.70;;;;;;;18.61;100.00;102145.28;5095187;28;20020;-63
2023/06/23 07:09:07;;;;;;;46.08;36.22;;;;;;;18.58;100.00;102145.53;5113319;28;20020;-63
2023/06/23 07:11:32;;;;;;;43.28;36.75;;;;;;;18.60;100.00;102149.84;5113746;28;20038;-62
2023/06/23 07:13:59;;;;;;;40.58;36.17;;;;;;;18.68;100.00;102160.03;5113751;28;20024;-63
2023/06/23 07:16:30;;;;;;;36.83;32.78;;;;;;;18.65;100.00;102157.56;5113354;28;20471;-63
2023/06/23 07:18:56;;;;;;;38.95;34.08;;;;;;;18.73;100.00;102162.38;5113509;28;20023;-63
2023/06/23 07:21:21;;;;;;;40.58;35.83;;;;;;;18.77;100.00;102147.72;5113320;28;20076;-63
2023/06/23 07:23:47;;;;;;;40.25;35.28;;;;;;;18.90;100.00;102161.97;5112972;28;20015;-62
2023/06/23 07:26:12;;;;;;;38.75;32.90;;;;;;;18.89;100.00;102160.25;5113338;28;20035;-63
2023/06/23 07:28:37;;;;;;;38.10;32.40;;;;;;;19.01;100.00;102169.22;5113410;28;20464;-63
2023/06/23 07:31:05;;;;;;;35.88;32.13;;;;;;;19.10;100.00;102168.50;5094737;28;20019;-63
2023/06/23 07:33:31;;;;;;;34.55;29.95;;;;;;;19.17;100.00;102168.88;5113314;28;20493;-63
2023/06/23 07:35:56;;;;;;;34.88;30.63;;;;;;;19.21;100.00;102173.06;5113485;28;20027;-62
2023/06/23 07:38:22;;;;;;;36.05;30.13;;;;;;;19.31;100.00;102165.94;5112572;28;20035;-63
2023/06/23 07:40:47;;;;;;;36.13;30.52;;;;;;;19.35;100.00;102169.25;5113375;28;20023;-63
2023/06/23 07:43:13;;;;;;;30.92;27.63;;;;;;;19.41;99.60;102180.44;5094251;28;20110;-63
2023/06/23 07:45:39;;;;;;;26.52;23.83;;;;;;;19.51;98.23;102186.81;5112974;28;20034;-62
2023/06/23 07:48:04;;;;;;;26.00;23.17;;;;;;;19.52;96.70;102182.28;5094449;28;20059;-62
2023/06/23 07:50:29;;;;;;;25.58;22.98;;;;;;;19.57;97.28;102179.22;5113334;28;20016;-63
2023/06/23 07:52:55;;;;;;;25.80;22.50;;;;;;;19.64;98.71;102178.59;5112794;28;20046;-63
2023/06/23 07:55:21;;;;;;;32.22;27.50;;;;;;;19.63;97.71;102179.59;5112618;28;20058;-63
2023/06/23 07:57:47;;;;;;;31.55;28.30;;;;;;;19.60;96.67;102169.03;5094706;28;20026;-63
2023/06/23 08:00:13;;;;;;;31.95;27.35;;;;;;;19.78;97.91;102176.66;5112573;28;20016;-63
2023/06/23 08:02:38;;;;;;;30.40;27.10;;;;;;;19.88;95.98;102180.31;5112639;28;20055;-63
2023/06/23 08:05:04;;;;;;;26.02;22.52;;;;;;;20.01;94.18;102186.44;5112031;28;20486;-63
2023/06/23 08:07:29;;;;;;;22.67;19.25;;;;;;;20.01;94.38;102180.19;5113030;28;20088;-63
2023/06/23 08:09:54;;;;;;;23.95;20.23;;;;;;;20.19;94.07;102186.78;5112232;28;20027;-63
2023/06/23 08:12:20;;;;;;;23.15;19.63;;;;;;;20.20;91.41;102185.78;5112500;28;20035;-63
2023/06/23 08:14:45;;;;;;;21.20;18.92;;;;;;;20.22;90.95;102186.53;5093794;28;20028;-63
2023/06/23 08:17:11;;;;;;;21.58;19.38;;;;;;;20.20;90.88;102188.47;5112392;28;20175;-63
2023/06/23 08:19:37;;;;;;;22.27;19.42;;;;;;;20.23;90.26;102190.09;5094178;28;20574;-63
2023/06/23 08:22:03;;;;;;;21.45;18.00;;;;;;;20.34;89.66;102181.94;5112722;28;20106;-63
2023/06/23 08:24:29;;;;;;;21.25;18.95;;;;;;;20.36;90.47;102188.09;5111629;28;20024;-62
2023/06/23 08:26:54;;;;;;;26.52;18.90;;;;;;;20.46;89.47;102193.56;5112333;28;20055;-63
2023/06/23 08:29:20;;;;;;;22.25;18.17;;;;;;;20.59;89.34;102191.59;5093617;28;20026;-63
2023/06/23 08:31:45;;;;;;;21.85;17.55;;;;;;;20.72;91.00;102200.38;5111988;28;20028;-63
2023/06/23 08:34:11;;;;;;;16.33;13.63;;;;;;;20.68;84.46;102198.06;5112035;28;20107;-63
2023/06/23 08:36:36;;;;;;;15.82;14.15;;;;;;;20.72;86.08;102202.22;5111951;28;20024;-63
2023/06/23 08:39:02;;;;;;;15.40;13.65;;;;;;;20.77;84.26;102192.75;5111818;28;20042;-63
2023/06/23 08:41:32;;;;;;;15.32;13.50;;;;;;;20.84;84.80;102204.75;5112145;28;20028;-63
2023/06/23 08:44:02;;;;;;;17.55;14.88;;;;;;;20.88;84.12;102208.03;5091577;28;20024;-63
2023/06/23 08:46:31;;;;;;;14.90;13.35;;;;;;;21.02;82.80;102214.97;5091890;28;20104;-63
2023/06/23 08:49:05;;;;;;;15.55;12.68;;;;;;;21.00;78.98;102212.44;5091638;28;20075;-63
2023/06/23 08:51:31;;;;;;;16.27;13.35;;;;;;;20.97;82.82;102222.63;5092057;28;20464;-63
2023/06/23 08:53:59;;;;;;;14.50;13.00;;;;;;;21.09;83.42;102224.31;5108951;28;20088;-63
2023/06/23 08:56:25;;;;;;;17.70;14.30;;;;;;;21.23;82.14;102209.56;5112126;28;20020;-63
2023/06/23 08:58:51;;;;;;;14.63;13.10;;;;;;;21.34;84.74;102217.63;5111647;28;20037;-63
2023/06/23 09:01:19;;;;;;;15.38;12.32;;;;;;;21.40;83.07;102227.94;5112096;28;20060;-63
2023/06/23 09:03:46;;;;;;;12.43;11.30;;;;;;;21.40;83.46;102227.94;5111680;28;20032;-63
2023/06/23 09:06:12;;;;;;;13.88;12.25;;;;;;;21.39;81.47;102228.94;5111958;28;20027;-63
2023/06/23 09:08:37;;;;;;;12.10;11.00;;;;;;;21.25;77.42;102234.66;5111619;28;20042;-63
2023/06/23 09:11:02;;;;;;;14.95;11.80;;;;;;;21.42;81.72;102231.38;5112177;28;20023;-63
2023/06/23 09:13:35;;;;;;;13.18;11.13;;;;;;;21.50;79.78;102244.22;5104570;28;20059;-63
2023/06/23 09:16:02;;;;;;;13.60;11.23;;;;;;;21.49;74.87;102237.97;5110380;28;20493;-63
2023/06/23 09:18:30;;;;;;;11.00;9.93;;;;;;;21.57;77.63;102231.88;5110347;28;20420;-63
2023/06/23 09:20:56;;;;;;;12.75;9.52;;;;;;;21.75;76.87;102243.78;5109168;28;20103;-63
2023/06/23 09:23:23;;;;;;;10.85;9.75;;;;;;;21.92;75.85;102252.28;5107866;28;20015;-63
2023/06/23 09:25:50;;;;;;;13.75;9.23;;;;;;;21.94;76.96;102255.69;5111095;28;20011;-61
2023/06/23 09:28:36;;;;;;;18.42;9.82;;;;;;;21.98;75.96;102251.75;5109579;28;20089;-62
2023/06/23 09:31:22;;;;;;;10.18;8.20;;;;;;;22.14;75.97;102254.78;5089478;28;20096;-66
2023/06/23 09:33:50;;;;;;;10.00;8.90;;;;;;;22.21;72.78;102260.56;5092895;28;20421;-66
2023/06/23 09:36:16;;;;;;;9.07;8.18;;;;;;;22.40;72.71;102265.16;5096476;28;20115;-65
2023/06/23 09:38:42;;;;;;;10.00;9.00;;;;;;;22.49;72.62;102264.31;5088090;28;20024;-66
2023/06/23 09:41:11;;;;;;;11.13;9.40;;;;;;;22.55;73.35;102262.91;5113634;28;20034;-67
2023/06/23 09:43:39;;;;;;;10.90;9.27;;;;;;;22.62;71.54;102273.06;5110572;28;20027;-65
2023/06/23 09:46:06;;;;;;;11.10;8.55;;;;;;;22.60;71.20;102277.75;5114970;28;20027;-64
2023/06/23 09:48:32;;;;;;;9.15;7.90;;;;;;;22.67;72.96;102273.47;5100393;28;20119;-66
2023/06/23 09:51:05;;;;;;;12.40;7.80;;;;;;;22.72;71.20;102278.47;5086712;27;20019;-62
2023/06/23 09:53:37;;;;;;;7.97;7.13;;;;;;;22.81;71.35;102271.34;5114154;28;20028;-62
2023/06/23 09:56:04;;;;;;;10.35;8.57;;;;;;;22.83;69.16;102267.50;5113574;28;20470;-62
2023/06/23 09:58:32;;;;;;;9.73;8.68;;;;;;;22.80;67.91;102280.50;5095773;28;20027;-62
2023/06/23 10:01:09;;;;;;;10.30;8.68;;;;;;;22.95;70.12;102264.69;5115194;28;20161;-62
2023/06/23 10:04:05;;;;;;;10.00;8.90;;;;;;;22.96;68.60;102263.66;5113025;28;20118;-62
2023/06/23 10:06:39;;;;;;;9.07;7.90;;;;;;;22.72;67.43;102267.63;5101698;28;20042;-62
2023/06/23 10:09:10;;;;;;;8.00;7.07;;;;;;;22.74;67.27;102270.22;5093876;28;20451;-62
2023/06/23 10:11:38;;;;;;;10.02;8.02;;;;;;;22.76;66.41;102263.63;5113185;28;20509;-62
2023/06/23 10:14:06;;;;;;;8.83;8.00;;;;;;;22.84;66.56;102263.78;5114826;28;20537;-62
2023/06/23 10:16:33;;;;;;;8.68;7.68;;;;;;;22.93;67.05;102250.34;5114915;28;20272;-62
2023/06/23 10:18:59;;;;;;;7.45;6.72;;;;;;;22.87;67.34;102260.78;5113659;28;20050;-61
2023/06/23 10:21:25;;;;;;;9.43;7.20;;;;;;;22.80;70.12;102261.50;5114978;28;20028;-62
2023/06/23 10:23:54;;;;;;;11.68;8.02;;;;;;;22.94;67.87;102260.19;5096082;28;20015;-62
2023/06/23 10:26:20;;;;;;;9.23;7.93;;;;;;;23.09;68.32;102262.38;5127448;27;20417;-61
2023/06/23 10:28:49;;;;;;;10.82;8.27;;;;;;;23.19;66.49;102265.06;5117977;27;20147;-62
2023/06/23 10:31:17;;;;;;;8.98;7.22;;;;;;;23.08;64.37;102271.50;5096494;28;20247;-62
2023/06/23 10:33:43;;;;;;;10.32;7.82;;;;;;;22.99;66.93;102261.53;5114572;28;20019;-62
2023/06/23 10:36:20;;;;;;;21.45;9.40;;;;;;;23.16;67.22;102273.50;5113271;28;20031;-63
2023/06/23 10:38:53;;;;;;;9.65;7.00;;;;;;;23.27;64.88;102269.78;5113413;28;20038;-62
2023/06/23 10:41:20;;;;;;;7.97;5.68;;;;;;;23.32;62.79;102265.66;5095048;28;20486;-62
2023/06/23 10:43:51;;;;;;;8.73;6.07;;;;;;;23.25;64.36;102278.06;5114384;28;20029;-62
2023/06/23 10:46:17;;;;;;;7.90;6.55;;;;;;;23.32;63.88;102264.75;5113133;28;20031;-62
2023/06/23 10:48:43;;;;;;;7.88;6.38;;;;;;;23.69;66.56;102283.00;5085049;28;20040;-62
2023/06/23 10:51:10;;;;;;;8.85;6.97;;;;;;;23.68;64.28;102284.84;5109394;28;20055;-62
2023/06/23 10:53:55;;;;;;;8.70;7.53;;;;;;;23.54;65.37;102272.59;5113437;28;20042;-62
2023/06/23 10:56:30;;;;;;;7.40;6.53;;;;;;;23.74;66.53;102269.84;5114323;28;20415;-62
2023/06/23 10:58:55;;;;;;;7.72;6.22;;;;;;;23.77;62.70;102281.28;5093328;27;20024;-62
2023/06/23 11:01:21;;;;;;;8.70;6.28;;;;;;;23.76;62.48;102293.13;5123411;27;20015;-64
2023/06/23 11:03:52;;;;;;;8.95;6.65;;;;;;;23.86;60.62;102278.69;5102098;28;20479;-65
2023/06/23 11:06:34;;;;;;;8.57;6.18;;;;;;;24.06;62.63;102276.72;5075489;28;20075;-63
2023/06/23 11:09:01;;;;;;;8.18;7.18;;;;;;;24.19;62.20;102279.94;5089215;28;20023;-65
2023/06/23 11:11:36;;;;;;;9.10;5.75;;;;;;;24.23;59.94;102284.06;5112251;28;20032;-67
2023/06/23 11:14:01;;;;;;;8.30;6.80;;;;;;;24.40;60.52;102293.28;5091605;28;20077;-65